Time;durP1;ratioP1;P1;durP2;ratioP2;P2;SDS_P1;SDS_P2;PMS_P1;PMS_P2;Temp;Humidity;BMP_temperature;BMP_pressure;BME280_temperature;BME280_humidity;BME280_pressure;Samples;Min_cycle;Max_cycle;Signal;HPM_P1;HPM_P2
2022/09/18 00:02:24;;;;;;;9.98;1.52;;;;;;;9.85;100.00;101754.03;5094700;28;20046;-83
2022/09/18 00:04:50;;;;;;;9.70;1.67;;;;;;;9.84;100.00;101760.31;5094668;28;20377;-89
2022/09/18 00:07:15;;;;;;;10.80;1.58;;;;;;;9.82;100.00;101751.59;5077099;28;20028;-86
2022/09/18 00:09:42;;;;;;;11.43;1.80;;;;;;;9.81;100.00;101755.22;5094654;28;20028;-84
2022/09/18 00:12:07;;;;;;;10.50;1.38;;;;;;;9.81;100.00;101754.38;5095293;28;20028;-84
2022/09/18 00:14:33;;;;;;;8.57;1.13;;;;;;;9.82;100.00;101758.72;5076468;28;20376;-83
2022/09/18 00:16:58;;;;;;;10.57;1.45;;;;;;;9.81;100.00;101747.25;5094312;28;20077;-84
2022/09/18 00:19:24;;;;;;;10.68;1.55;;;;;;;9.79;100.00;101754.50;5076189;28;20043;-90
2022/09/18 00:21:50;;;;;;;8.88;1.38;;;;;;;9.80;100.00;101757.97;5094270;28;20148;-84
2022/09/18 00:24:16;;;;;;;7.95;1.00;;;;;;;9.79;100.00;101764.25;5094108;28;20024;-85
2022/09/18 00:26:42;;;;;;;8.98;1.20;;;;;;;9.82;100.00;101756.03;5094101;28;20040;-84
2022/09/18 00:29:09;;;;;;;17.65;1.58;;;;;;;9.83;100.00;101757.75;5094056;28;20157;-83
2022/09/18 00:31:35;;;;;;;7.57;1.40;;;;;;;9.88;100.00;101753.81;5094081;28;20087;-83
2022/09/18 00:34:03;;;;;;;9.05;1.20;;;;;;;9.95;100.00;101745.38;5093862;28;20479;-88
2022/09/18 00:36:29;;;;;;;8.05;1.50;;;;;;;9.98;100.00;101751.31;5075694;28;20024;-85
2022/09/18 00:38:55;;;;;;;6.80;1.08;;;;;;;10.15;100.00;101755.41;5094079;28;20089;-83
2022/09/18 00:41:27;;;;;;;7.15;1.23;;;;;;;10.40;100.00;101764.22;5093793;28;20027;-82
2022/09/18 00:44:14;;;;;;;9.45;1.58;;;;;;;10.43;100.00;101779.09;5094046;28;20476;-84
2022/09/18 00:46:41;;;;;;;6.60;1.52;;;;;;;10.35;100.00;101769.88;5093624;28;20081;-81
2022/09/18 00:49:23;;;;;;;8.05;1.33;;;;;;;10.28;100.00;101773.09;5093671;28;20078;-80
2022/09/18 00:51:51;;;;;;;10.32;1.30;;;;;;;10.17;100.00;101766.75;5093368;28;20031;-80
2022/09/18 00:54:35;;;;;;;14.23;1.27;;;;;;;10.07;100.00;101763.06;5093284;28;20060;-82
2022/09/18 00:57:08;;;;;;;8.55;1.83;;;;;;;10.00;100.00;101760.03;5093819;28;20039;-81
2022/09/18 00:59:36;;;;;;;11.68;2.05;;;;;;;9.97;100.00;101759.41;5093580;28;20036;-82
2022/09/18 01:02:03;;;;;;;12.95;1.30;;;;;;;9.96;100.00;101753.25;5094096;28;20082;-73
2022/09/18 01:04:29;;;;;;;11.95;1.63;;;;;;;9.96;100.00;101757.72;5093784;28;20028;-73
2022/09/18 01:07:05;;;;;;;7.43;1.30;;;;;;;9.98;100.00;101750.47;5093802;28;20503;-73
2022/09/18 01:09:49;;;;;;;10.55;1.52;;;;;;;10.00;100.00;101746.75;5094344;28;20020;-72
2022/09/18 01:12:19;;;;;;;12.52;1.42;;;;;;;10.01;100.00;101751.06;5093462;28;20552;-72
2022/09/18 01:14:56;;;;;;;6.80;1.55;;;;;;;10.04;100.00;101753.50;5093029;28;20027;-72
2022/09/18 01:17:59;;;;;;;11.65;1.30;;;;;;;10.07;100.00;101733.81;5076082;28;20424;-72
2022/09/18 01:20:55;;;;;;;11.13;1.08;;;;;;;10.18;100.00;101731.22;5073371;28;20044;-72
2022/09/18 01:23:54;;;;;;;6.50;1.02;;;;;;;10.30;100.00;101740.09;5093677;28;20111;-72
2022/09/18 01:26:53;;;;;;;8.85;1.05;;;;;;;10.34;100.00;101730.94;5093333;28;20020;-71
2022/09/18 01:29:29;;;;;;;7.57;1.27;;;;;;;10.41;100.00;101726.84;5093418;28;20016;-71
2022/09/18 01:32:02;;;;;;;5.47;1.10;;;;;;;10.46;100.00;101721.19;5093091;28;20476;-72
2022/09/18 01:34:45;;;;;;;12.25;1.63;;;;;;;10.52;100.00;101739.34;5093119;28;20069;-72
2022/09/18 01:37:33;;;;;;;3.00;0.65;;;;;;;10.60;100.00;101712.16;5093650;28;20024;-71
2022/09/18 01:40:14;;;;;;;6.60;0.93;;;;;;;10.70;100.00;101712.28;5093294;28;20031;-71
2022/09/18 01:42:43;;;;;;;5.53;0.90;;;;;;;10.75;100.00;101712.78;5075951;28;20032;-72
2022/09/18 01:45:13;;;;;;;2.72;0.75;;;;;;;10.77;100.00;101716.19;5093282;28;20052;-72
2022/09/18 01:48:00;;;;;;;8.38;1.00;;;;;;;10.79;100.00;101708.91;5093828;28;20034;-71
2022/09/18 01:50:30;;;;;;;8.65;1.00;;;;;;;10.85;100.00;101713.78;5074956;28;20048;-72
2022/09/18 01:53:01;;;;;;;7.47;1.15;;;;;;;10.94;100.00;101714.84;5092785;28;20499;-72
2022/09/18 01:55:29;;;;;;;7.15;1.05;;;;;;;11.02;100.00;101706.28;5093167;28;20479;-72
2022/09/18 01:58:06;;;;;;;15.43;1.75;;;;;;;11.07;100.00;101704.09;5074902;28;20039;-72
2022/09/18 02:00:33;;;;;;;18.17;2.03;;;;;;;11.12;100.00;101712.56;5093420;28;20069;-72
2022/09/18 02:03:04;;;;;;;6.95;1.45;;;;;;;11.16;100.00;101719.34;5093115;28;20490;-72
2022/09/18 02:05:35;;;;;;;11.20;1.20;;;;;;;11.21;100.00;101714.50;5093281;28;20107;-72
2022/09/18 02:08:16;;;;;;;10.50;1.10;;;;;;;11.27;100.00;101721.13;5093330;28;20055;-72
2022/09/18 02:10:47;;;;;;;5.95;1.10;;;;;;;11.25;100.00;101704.44;5093059;28;20099;-72
2022/09/18 02:13:17;;;;;;;7.85;1.40;;;;;;;11.21;100.00;101713.66;5074590;28;20020;-73
2022/09/18 02:15:47;;;;;;;6.80;1.52;;;;;;;11.17;100.00;101709.56;5093619;28;20103;-72
2022/09/18 02:18:20;;;;;;;3.83;1.30;;;;;;;11.12;100.00;101707.22;5075310;28;20028;-72
2022/09/18 02:20:46;;;;;;;5.78;1.40;;;;;;;11.13;100.00;101698.28;5092995;28;20084;-72
2022/09/18 02:23:12;;;;;;;4.13;0.80;;;;;;;11.15;100.00;101701.69;5093141;28;20032;-72
2022/09/18 02:25:47;;;;;;;7.90;0.80;;;;;;;11.18;100.00;101700.56;5094036;28;20028;-72
2022/09/18 02:28:15;;;;;;;3.95;1.20;;;;;;;11.21;100.00;101701.19;5078786;28;20023;-72
2022/09/18 02:30:41;;;;;;;5.88;1.25;;;;;;;11.21;100.00;101703.84;5096584;28;20070;-72
2022/09/18 02:33:30;;;;;;;6.75;0.73;;;;;;;11.25;100.00;101707.09;5096543;28;20063;-72
2022/09/18 02:36:20;;;;;;;4.43;0.65;;;;;;;11.32;100.00;101702.16;5096614;28;20066;-72
2022/09/18 02:39:09;;;;;;;6.72;0.82;;;;;;;11.39;100.00;101696.19;5096614;28;20032;-73
2022/09/18 02:41:54;;;;;;;5.70;0.75;;;;;;;11.44;100.00;101702.00;5096367;28;20032;-73
2022/09/18 02:44:44;;;;;;;8.27;1.52;;;;;;;11.47;100.00;101698.25;5096422;28;20050;-72
2022/09/18 02:47:51;;;;;;;6.30;1.10;;;;;;;11.47;100.00;101701.75;5096595;28;20055;-73
2022/09/18 02:50:40;;;;;;;5.85;1.75;;;;;;;11.43;100.00;101694.13;5096269;28;20044;-72
2022/09/18 02:53:22;;;;;;;7.10;1.30;;;;;;;11.40;100.00;101697.03;5095918;28;20028;-73
2022/09/18 02:55:59;;;;;;;8.50;1.33;;;;;;;11.43;100.00;101702.13;5096357;28;20076;-73
2022/09/18 02:58:49;;;;;;;9.27;1.40;;;;;;;11.44;100.00;101695.84;5095956;28;20032;-73
2022/09/18 03:01:16;;;;;;;5.32;0.88;;;;;;;11.46;100.00;101697.41;5096361;28;20073;-73
2022/09/18 03:03:42;;;;;;;6.13;1.40;;;;;;;11.47;100.00;101692.91;5095637;28;20038;-73
2022/09/18 03:06:08;;;;;;;9.32;1.35;;;;;;;11.47;100.00;101695.59;5096166;28;20028;-72
2022/09/18 03:08:34;;;;;;;10.23;1.35;;;;;;;11.47;100.00;101693.75;5096382;28;20031;-73
2022/09/18 03:10:59;;;;;;;9.43;1.48;;;;;;;11.49;100.00;101693.63;5095811;28;20472;-73
2022/09/18 03:13:25;;;;;;;4.45;0.95;;;;;;;11.49;100.00;101688.28;5095749;28;20070;-73
2022/09/18 03:15:50;;;;;;;7.03;1.48;;;;;;;11.51;100.00;101696.16;5095659;28;20481;-73
2022/09/18 03:18:15;;;;;;;3.35;0.90;;;;;;;11.47;100.00;101685.75;5095641;28;20097;-73
2022/09/18 03:20:42;;;;;;;5.97;1.10;;;;;;;11.44;100.00;101693.16;5096038;28;20031;-73
2022/09/18 03:23:09;;;;;;;2.90;0.82;;;;;;;11.40;100.00;101681.88;5095547;28;20037;-73
2022/09/18 03:25:34;;;;;;;4.40;1.17;;;;;;;11.38;100.00;101683.84;5095471;28;20510;-73
2022/09/18 03:28:00;;;;;;;5.38;1.10;;;;;;;11.38;100.00;101691.00;5096002;28;20040;-73
2022/09/18 03:30:26;;;;;;;8.07;1.17;;;;;;;11.41;100.00;101693.41;5078114;28;20471;-72
2022/09/18 03:32:52;;;;;;;9.18;1.15;;;;;;;11.38;100.00;101675.00;5095014;28;20133;-72
2022/09/18 03:35:17;;;;;;;10.57;1.40;;;;;;;11.35;100.00;101675.25;5077169;28;20032;-73
2022/09/18 03:37:43;;;;;;;7.40;1.42;;;;;;;11.32;100.00;101672.84;5094839;28;20044;-73
2022/09/18 03:40:08;;;;;;;6.88;2.08;;;;;;;11.33;100.00;101679.84;5077102;28;20020;-73
2022/09/18 03:42:33;;;;;;;14.23;2.28;;;;;;;11.34;100.00;101681.56;5077186;28;20043;-73
2022/09/18 03:44:59;;;;;;;7.93;1.40;;;;;;;11.39;100.00;101674.88;5095603;28;20058;-73
2022/09/18 03:47:25;;;;;;;10.98;1.80;;;;;;;11.43;100.00;101680.81;5095574;28;20464;-72
2022/09/18 03:49:51;;;;;;;9.93;1.55;;;;;;;11.48;100.00;101683.97;5094978;28;20136;-73
2022/09/18 03:52:16;;;;;;;16.00;1.30;;;;;;;11.45;100.00;101684.22;5095017;28;20064;-73
2022/09/18 03:54:41;;;;;;;4.47;1.02;;;;;;;11.37;100.00;101686.63;5076903;28;20478;-73
2022/09/18 03:57:07;;;;;;;5.35;1.10;;;;;;;11.28;100.00;101678.38;5077002;28;20414;-73
2022/09/18 03:59:33;;;;;;;7.25;1.33;;;;;;;11.21;100.00;101685.22;5094835;28;20034;-72
2022/09/18 04:01:58;;;;;;;5.65;1.30;;;;;;;11.17;100.00;101678.44;5094900;28;20031;-72
2022/09/18 04:04:23;;;;;;;6.95;1.40;;;;;;;11.12;100.00;101683.25;5094523;28;20044;-72
2022/09/18 04:06:49;;;;;;;4.60;1.00;;;;;;;11.10;100.00;101695.84;5094617;28;20028;-72
2022/09/18 04:09:15;;;;;;;4.45;0.95;;;;;;;11.09;100.00;101694.16;5094659;28;20089;-72
2022/09/18 04:11:41;;;;;;;5.35;1.20;;;;;;;11.10;100.00;101688.69;5094758;28;20064;-72
2022/09/18 04:14:06;;;;;;;4.05;1.08;;;;;;;11.12;100.00;101685.91;5094775;28;20028;-73
2022/09/18 04:16:31;;;;;;;4.05;0.85;;;;;;;11.15;100.00;101691.03;5076457;28;20114;-73
2022/09/18 04:18:57;;;;;;;3.22;0.70;;;;;;;11.20;100.00;101686.16;5094372;28;20037;-73
2022/09/18 04:21:22;;;;;;;2.17;0.63;;;;;;;11.22;100.00;101678.06;5094858;28;20090;-72
2022/09/18 04:23:48;;;;;;;5.15;0.75;;;;;;;11.21;100.00;101685.22;5094284;28;20460;-72
2022/09/18 04:26:13;;;;;;;4.22;0.75;;;;;;;11.27;100.00;101674.06;5094296;28;20046;-71
2022/09/18 04:28:39;;;;;;;3.08;0.52;;;;;;;11.34;100.00;101673.56;5094096;28;20314;-72
2022/09/18 04:31:04;;;;;;;3.78;0.63;;;;;;;11.38;100.00;101677.69;5094112;28;20067;-72
2022/09/18 04:33:30;;;;;;;2.30;0.73;;;;;;;11.45;99.15;101686.88;5076045;28;20028;-72
2022/09/18 04:35:56;;;;;;;3.03;0.70;;;;;;;11.44;100.00;101690.50;5076263;28;20472;-72
2022/09/18 04:38:26;;;;;;;9.48;0.95;;;;;;;11.31;100.00;101693.28;5093979;28;20032;-72
2022/09/18 04:40:56;;;;;;;6.53;0.85;;;;;;;11.07;100.00;101688.13;5094058;28;20070;-72
2022/09/18 04:43:22;;;;;;;5.93;0.80;;;;;;;10.81;100.00;101677.72;5094091;28;20028;-73
2022/09/18 04:45:48;;;;;;;4.90;0.90;;;;;;;10.62;100.00;101683.59;5094381;28;20028;-72
2022/09/18 04:48:14;;;;;;;4.28;0.90;;;;;;;10.49;100.00;101675.72;5093183;28;20417;-72
2022/09/18 04:50:39;;;;;;;4.28;0.90;;;;;;;10.43;100.00;101675.34;5094878;28;20055;-72
2022/09/18 04:53:05;;;;;;;8.82;1.13;;;;;;;10.46;100.00;101669.78;5094263;28;20028;-72
2022/09/18 04:55:30;;;;;;;13.48;1.08;;;;;;;10.47;100.00;101663.50;5094075;28;20124;-73
2022/09/18 04:57:55;;;;;;;7.43;1.20;;;;;;;10.49;100.00;101662.41;5093618;28;20036;-72
2022/09/18 05:00:21;;;;;;;10.68;1.10;;;;;;;10.49;100.00;101659.75;5094056;28;20024;-72
2022/09/18 05:02:46;;;;;;;6.75;1.52;;;;;;;10.48;100.00;101660.72;5093662;28;20077;-72
2022/09/18 05:05:11;;;;;;;5.07;0.95;;;;;;;10.49;100.00;101654.44;5094140;28;20036;-72
2022/09/18 05:07:37;;;;;;;8.18;1.73;;;;;;;10.51;100.00;101641.00;5093867;28;20445;-74
2022/09/18 05:10:03;;;;;;;9.13;1.10;;;;;;;10.50;100.00;101652.63;5093575;28;20038;-73
2022/09/18 05:12:29;;;;;;;7.50;1.38;;;;;;;10.47;100.00;101656.38;5093455;28;20043;-72
2022/09/18 05:14:54;;;;;;;5.70;0.98;;;;;;;10.51;100.00;101655.19;5093180;28;20028;-71
2022/09/18 05:17:20;;;;;;;15.82;1.65;;;;;;;10.59;100.00;101644.75;5075275;28;20028;-73
2022/09/18 05:19:45;;;;;;;8.32;1.20;;;;;;;10.69;100.00;101646.69;5093133;28;20032;-73
2022/09/18 05:22:10;;;;;;;4.03;0.90;;;;;;;10.78;100.00;101643.34;5093414;28;20449;-72
2022/09/18 05:24:35;;;;;;;5.07;1.15;;;;;;;10.88;100.00;101656.75;5093507;28;20452;-73
2022/09/18 05:27:02;;;;;;;3.45;0.90;;;;;;;11.01;100.00;101652.16;5093281;28;20038;-72
2022/09/18 05:29:28;;;;;;;10.13;1.25;;;;;;;11.12;100.00;101645.97;5093298;28;20452;-73
2022/09/18 05:31:53;;;;;;;8.52;1.40;;;;;;;11.20;100.00;101656.88;5093010;28;20039;-73
2022/09/18 05:34:18;;;;;;;9.32;1.20;;;;;;;11.23;100.00;101656.63;5093381;28;20036;-73
2022/09/18 05:36:44;;;;;;;8.88;1.45;;;;;;;11.23;100.00;101639.81;5075205;28;20032;-72
2022/09/18 05:39:10;;;;;;;10.60;1.17;;;;;;;11.24;100.00;101650.31;5093179;28;20099;-73
2022/09/18 05:41:35;;;;;;;9.48;1.23;;;;;;;11.25;100.00;101656.50;5075196;28;20123;-72
2022/09/18 05:44:01;;;;;;;10.85;1.23;;;;;;;11.24;100.00;101639.69;5093249;28;20157;-73
2022/09/18 05:46:26;;;;;;;10.75;1.55;;;;;;;11.16;100.00;101630.59;5093319;28;20119;-72
2022/09/18 05:48:51;;;;;;;7.95;1.48;;;;;;;11.09;100.00;101639.09;5093022;28;20036;-72
2022/09/18 05:51:17;;;;;;;2.83;0.75;;;;;;;11.07;100.00;101641.00;5092979;28;20024;-72
2022/09/18 05:53:47;;;;;;;6.90;1.20;;;;;;;11.07;100.00;101656.16;5092897;28;20064;-73
2022/09/18 05:56:15;;;;;;;5.28;0.80;;;;;;;11.17;100.00;101661.59;5093156;28;20029;-72
2022/09/18 05:58:41;;;;;;;5.97;1.35;;;;;;;11.13;100.00;101650.34;5093603;28;20032;-72
2022/09/18 06:01:07;;;;;;;8.07;1.27;;;;;;;11.01;100.00;101641.50;5096405;28;20478;-73
2022/09/18 06:03:32;;;;;;;8.95;1.48;;;;;;;10.89;100.00;101645.16;5097121;28;20031;-73
2022/09/18 06:05:58;;;;;;;9.32;1.38;;;;;;;10.81;100.00;101637.78;5096699;28;20079;-73
2022/09/18 06:08:23;;;;;;;9.50;1.38;;;;;;;10.77;100.00;101636.31;5097047;28;20360;-73
2022/09/18 06:10:49;;;;;;;9.40;1.58;;;;;;;10.75;100.00;101641.75;5097221;28;20032;-73
2022/09/18 06:13:17;;;;;;;11.15;1.77;;;;;;;10.75;100.00;101639.09;5097542;28;20383;-73
2022/09/18 06:15:47;;;;;;;9.75;1.83;;;;;;;10.75;100.00;101641.75;5096588;28;20028;-73
2022/09/18 06:18:13;;;;;;;6.68;1.20;;;;;;;10.79;100.00;101639.69;5096868;28;20032;-73
2022/09/18 06:20:40;;;;;;;9.27;1.45;;;;;;;10.84;100.00;101636.66;5078786;28;20032;-72
2022/09/18 06:23:05;;;;;;;7.55;1.30;;;;;;;10.83;100.00;101635.81;5096561;28;20032;-72
2022/09/18 06:25:31;;;;;;;4.28;1.00;;;;;;;10.90;100.00;101637.03;5079216;28;20028;-72
2022/09/18 06:27:57;;;;;;;5.22;1.05;;;;;;;11.01;100.00;101630.03;5096556;28;20043;-72
2022/09/18 06:30:28;;;;;;;7.47;1.25;;;;;;;11.20;100.00;101629.41;5097011;28;20032;-72
2022/09/18 06:32:55;;;;;;;7.25;1.20;;;;;;;11.30;100.00;101638.34;5096416;28;20032;-73
2022/09/18 06:35:21;;;;;;;7.80;1.60;;;;;;;11.37;100.00;101644.84;5096579;28;20392;-72
2022/09/18 06:37:47;;;;;;;8.98;1.55;;;;;;;11.39;100.00;101639.38;5096377;28;20098;-72
2022/09/18 06:40:12;;;;;;;9.57;1.65;;;;;;;11.40;100.00;101631.25;5078157;28;20036;-72
2022/09/18 06:42:37;;;;;;;14.98;2.35;;;;;;;11.41;100.00;101635.63;5096652;28;20032;-73
2022/09/18 06:45:03;;;;;;;12.90;2.15;;;;;;;11.44;100.00;101643.38;5096545;28;20039;-73
2022/09/18 06:47:29;;;;;;;5.65;1.30;;;;;;;11.45;100.00;101644.25;5096280;28;20035;-73
2022/09/18 06:49:54;;;;;;;24.17;2.30;;;;;;;11.43;100.00;101638.16;5077757;28;20056;-73
2022/09/18 06:52:19;;;;;;;10.27;1.42;;;;;;;11.51;100.00;101648.19;5078047;28;20537;-73
2022/09/18 06:54:45;;;;;;;6.63;1.33;;;;;;;11.58;100.00;101652.06;5096227;28;20068;-73
2022/09/18 06:57:10;;;;;;;9.05;1.33;;;;;;;11.63;100.00;101656.03;5095969;28;20074;-73
2022/09/18 06:59:37;;;;;;;10.98;1.20;;;;;;;11.68;100.00;101649.50;5095919;28;20380;-73
2022/09/18 07:02:02;;;;;;;6.80;1.30;;;;;;;11.72;100.00;101650.91;5095896;28;20082;-73
2022/09/18 07:04:28;;;;;;;8.65;1.55;;;;;;;11.79;100.00;101652.09;5077479;28;20036;-72
2022/09/18 07:06:53;;;;;;;7.00;1.30;;;;;;;11.86;100.00;101645.28;5096129;28;20106;-72
2022/09/18 07:09:18;;;;;;;6.57;1.45;;;;;;;11.93;100.00;101646.50;5095771;28;20062;-72
2022/09/18 07:11:43;;;;;;;8.10;1.58;;;;;;;12.03;100.00;101646.56;5095404;28;20060;-72
2022/09/18 07:14:09;;;;;;;14.35;1.38;;;;;;;12.10;100.00;101647.75;5095750;28;20039;-73
2022/09/18 07:16:34;;;;;;;7.43;1.45;;;;;;;12.14;100.00;101654.53;5096461;28;20042;-72
2022/09/18 07:19:00;;;;;;;10.52;1.38;;;;;;;12.13;100.00;101644.00;5095633;28;20528;-74
2022/09/18 07:21:25;;;;;;;9.93;1.30;;;;;;;12.15;100.00;101661.56;5095282;28;20511;-72
2022/09/18 07:23:51;;;;;;;8.95;1.40;;;;;;;12.18;100.00;101660.44;5095591;28;20024;-72
2022/09/18 07:26:17;;;;;;;9.90;1.80;;;;;;;12.24;100.00;101653.75;5095646;28;20036;-72
2022/09/18 07:28:43;;;;;;;11.60;1.45;;;;;;;12.29;100.00;101646.22;5095403;28;20479;-70
2022/09/18 07:31:09;;;;;;;7.15;1.77;;;;;;;12.31;100.00;101644.25;5095825;28;20028;-73
2022/09/18 07:33:34;;;;;;;6.88;1.50;;;;;;;12.35;100.00;101649.19;5095595;28;20084;-73
2022/09/18 07:36:01;;;;;;;7.63;1.40;;;;;;;12.34;100.00;101635.97;5095558;28;20032;-71
2022/09/18 07:38:26;;;;;;;6.13;1.10;;;;;;;12.32;100.00;101632.59;5094918;28;20078;-71
2022/09/18 07:40:52;;;;;;;7.00;1.30;;;;;;;12.29;100.00;101633.69;5095485;28;20032;-72
2022/09/18 07:43:17;;;;;;;6.32;1.25;;;;;;;12.21;100.00;101643.34;5077497;28;20123;-72
2022/09/18 07:45:43;;;;;;;7.50;1.48;;;;;;;12.08;100.00;101639.03;5077019;28;20028;-70
2022/09/18 07:48:09;;;;;;;8.02;1.20;;;;;;;11.93;100.00;101641.19;5076883;28;20035;-70
2022/09/18 07:50:35;;;;;;;12.48;1.73;;;;;;;11.71;100.00;101670.56;5095478;28;20185;-69
2022/09/18 07:53:02;;;;;;;14.43;1.83;;;;;;;11.44;100.00;101659.34;5095044;28;20028;-71
2022/09/18 07:55:27;;;;;;;10.93;1.65;;;;;;;11.05;100.00;101660.75;5094881;28;20429;-71
2022/09/18 07:57:59;;;;;;;11.02;1.52;;;;;;;10.75;100.00;101656.91;5094861;28;20024;-73
2022/09/18 08:00:25;;;;;;;15.90;2.42;;;;;;;10.55;100.00;101653.09;5094706;28;20077;-71
2022/09/18 08:03:01;;;;;;;11.88;1.88;;;;;;;10.46;100.00;101645.84;5094585;28;20028;-73
2022/09/18 08:05:26;;;;;;;8.20;1.85;;;;;;;10.48;100.00;101646.56;5094523;28;20463;-73
2022/09/18 08:07:51;;;;;;;10.35;1.60;;;;;;;10.53;100.00;101639.94;5094610;28;20111;-72
2022/09/18 08:10:17;;;;;;;10.02;1.85;;;;;;;10.59;100.00;101642.09;5076112;28;20036;-71
2022/09/18 08:12:42;;;;;;;22.15;2.83;;;;;;;10.68;100.00;101647.69;5094237;28;20062;-71
2022/09/18 08:15:08;;;;;;;15.60;2.03;;;;;;;10.78;100.00;101651.31;5094221;28;20384;-72
2022/09/18 08:17:34;;;;;;;17.63;2.00;;;;;;;10.89;100.00;101645.16;5094556;28;20118;-71
2022/09/18 08:19:59;;;;;;;10.80;1.83;;;;;;;10.99;100.00;101645.25;5093805;28;20515;-71
2022/09/18 08:22:24;;;;;;;13.35;1.48;;;;;;;11.04;100.00;101645.75;5093220;28;20173;-71
2022/09/18 08:24:50;;;;;;;7.68;1.30;;;;;;;11.10;100.00;101653.25;5093181;28;20068;-71
2022/09/18 08:27:15;;;;;;;8.88;1.35;;;;;;;11.19;100.00;101643.66;5093859;28;20118;-71
2022/09/18 08:29:41;;;;;;;7.15;1.52;;;;;;;11.32;100.00;101648.88;5093920;28;20203;-70
2022/09/18 08:32:06;;;;;;;9.13;1.52;;;;;;;11.42;100.00;101644.47;5093532;28;20042;-70
2022/09/18 08:34:32;;;;;;;6.80;1.00;;;;;;;11.56;100.00;101646.03;5075364;28;20467;-70
2022/09/18 08:36:57;;;;;;;6.65;1.10;;;;;;;11.64;100.00;101640.88;5093491;28;20038;-72
2022/09/18 08:39:22;;;;;;;6.15;1.40;;;;;;;11.71;100.00;101654.56;5093604;28;20028;-72
2022/09/18 08:41:51;;;;;;;5.13;1.02;;;;;;;11.74;100.00;101643.66;5093409;28;20120;-70
2022/09/18 08:44:27;;;;;;;6.32;0.95;;;;;;;11.83;100.00;101640.22;5093638;28;20028;-71
2022/09/18 08:47:08;;;;;;;5.32;1.02;;;;;;;11.89;100.00;101647.69;5093817;28;20027;-71
2022/09/18 08:49:37;;;;;;;;;;;;;;;11.96;100.00;101645.41;5093979;28;20052;-73
2022/09/18 08:52:10;;;;;;;8.52;1.30;;;;;;;11.94;100.00;101632.22;5093506;28;19965;-74
2022/09/18 08:54:55;;;;;;;3.50;0.70;;;;;;;11.99;100.00;101637.16;5093734;28;20032;-75
2022/09/18 08:57:25;;;;;;;5.93;0.70;;;;;;;12.05;100.00;101644.63;5093175;28;20028;-75
2022/09/18 08:59:56;;;;;;;2.20;0.73;;;;;;;12.12;100.00;101637.81;5093518;28;20066;-75
2022/09/18 09:02:45;;;;;;;6.50;0.98;;;;;;;12.20;100.00;101641.66;5075510;28;20027;-76
2022/09/18 09:05:13;;;;;;;7.25;1.05;;;;;;;12.31;100.00;101645.09;5093987;28;20106;-74
2022/09/18 09:08:05;;;;;;;7.82;1.10;;;;;;;12.44;100.00;101644.88;5093231;28;20024;-70
2022/09/18 09:10:30;;;;;;;;;;;;;;;12.55;100.00;101629.78;5075834;28;20077;-71
2022/09/18 09:13:16;;;;;;;5.30;0.80;;;;;;;12.69;100.00;101637.44;5093203;28;19916;-72
2022/09/18 09:16:07;;;;;;;7.72;2.00;;;;;;;12.87;100.00;101625.13;5093170;28;20032;-72
2022/09/18 09:18:59;;;;;;;6.10;0.90;;;;;;;13.01;100.00;101621.25;5093173;28;20055;-72
2022/09/18 09:21:59;;;;;;;9.10;1.38;;;;;;;13.01;100.00;101626.59;5093000;28;20077;-72
2022/09/18 09:24:34;;;;;;;4.13;0.95;;;;;;;12.84;100.00;101645.94;5093475;28;20039;-72
2022/09/18 09:27:09;;;;;;;4.55;1.08;;;;;;;12.43;100.00;101674.38;5093370;28;20028;-73
2022/09/18 09:29:38;;;;;;;7.03;1.00;;;;;;;11.90;100.00;101673.41;5094431;28;20035;-73
2022/09/18 09:32:13;;;;;;;12.77;1.65;;;;;;;11.46;100.00;101661.91;5093392;28;20028;-73
2022/09/18 09:34:45;;;;;;;6.93;1.20;;;;;;;11.23;100.00;101680.59;5094703;28;20036;-73
2022/09/18 09:37:17;;;;;;;4.70;1.08;;;;;;;11.07;100.00;101662.31;5098093;28;20032;-73
2022/09/18 09:39:45;;;;;;;;;;;;;;;10.94;100.00;101659.81;5097853;28;20027;-73
2022/09/18 09:42:33;;;;;;;6.80;1.35;;;;;;;10.81;100.00;101659.06;5097469;28;19989;-73
2022/09/18 09:45:09;;;;;;;8.77;1.10;;;;;;;10.76;100.00;101653.25;5097743;28;20036;-73
2022/09/18 09:48:05;;;;;;;6.18;1.35;;;;;;;10.76;100.00;101658.56;5098035;28;20028;-73
2022/09/18 09:50:52;;;;;;;9.40;0.80;;;;;;;10.77;100.00;101654.94;5097328;28;20079;-72
2022/09/18 09:53:18;;;;;;;4.90;1.13;;;;;;;10.79;100.00;101638.84;5097198;28;20039;-72
2022/09/18 09:55:46;;;;;;;7.97;1.45;;;;;;;10.90;100.00;101644.19;5078963;28;20060;-72
2022/09/18 09:58:16;;;;;;;5.85;1.00;;;;;;;11.05;100.00;101647.44;5097079;28;20541;-72
2022/09/18 10:00:50;;;;;;;10.57;1.30;;;;;;;11.21;100.00;101639.06;5097010;28;20036;-72
2022/09/18 10:03:33;;;;;;;7.82;1.33;;;;;;;11.38;100.00;101640.38;5097305;28;20430;-73
2022/09/18 10:06:13;;;;;;;4.32;0.80;;;;;;;11.53;100.00;101636.44;5078830;28;20036;-73
2022/09/18 10:08:47;;;;;;;14.20;1.60;;;;;;;11.65;100.00;101643.44;5079443;28;20063;-73
2022/09/18 10:11:14;;;;;;;9.90;1.13;;;;;;;11.79;100.00;101636.09;5097526;28;20024;-72
2022/09/18 10:13:42;;;;;;;9.35;1.30;;;;;;;11.92;100.00;101639.44;5096751;28;20028;-72
2022/09/18 10:16:55;;;;;;;5.68;1.15;;;;;;;11.95;100.00;101639.22;5096858;28;20024;-72
2022/09/18 10:19:24;;;;;;;3.22;0.82;;;;;;;11.99;100.00;101656.66;5094408;28;20075;-72
2022/09/18 10:21:52;;;;;;;4.25;1.25;;;;;;;11.95;100.00;101646.38;5096709;28;20028;-72
2022/09/18 10:24:27;;;;;;;7.28;1.60;;;;;;;11.83;100.00;101651.72;5096639;28;20103;-72
2022/09/18 10:26:59;;;;;;;9.20;1.52;;;;;;;11.73;100.00;101660.63;5097084;28;20052;-73
2022/09/18 10:29:24;;;;;;;8.65;1.70;;;;;;;11.69;100.00;101661.84;5096531;28;20039;-73
2022/09/18 10:31:53;;;;;;;7.07;1.60;;;;;;;11.58;100.00;101663.56;5096560;28;20036;-73
2022/09/18 10:34:32;;;;;;;8.75;1.50;;;;;;;11.44;100.00;101666.53;5078345;28;20036;-72
2022/09/18 10:36:58;;;;;;;9.27;1.45;;;;;;;11.38;100.00;101653.69;5097262;28;20035;-73
2022/09/18 10:39:35;;;;;;;10.05;1.60;;;;;;;11.44;100.00;101661.19;5096310;28;20024;-73
2022/09/18 10:42:03;;;;;;;15.05;2.00;;;;;;;11.57;100.00;101661.00;5096359;28;20043;-73
2022/09/18 10:44:33;;;;;;;5.97;1.20;;;;;;;11.67;100.00;101664.63;5096246;28;20032;-73
2022/09/18 10:47:11;;;;;;;9.32;1.48;;;;;;;11.65;100.00;101675.41;5095170;28;20058;-74
2022/09/18 10:49:48;;;;;;;10.48;1.20;;;;;;;11.46;100.00;101691.22;5096118;28;20044;-73
2022/09/18 10:52:34;;;;;;;12.55;1.20;;;;;;;11.25;100.00;101678.63;5096144;28;20028;-73
2022/09/18 10:55:07;;;;;;;7.85;1.20;;;;;;;11.15;100.00;101664.41;5096029;28;20032;-72
2022/09/18 10:57:45;;;;;;;8.00;1.67;;;;;;;11.16;100.00;101676.72;5096679;28;20028;-73
2022/09/18 11:00:19;;;;;;;10.50;1.40;;;;;;;11.23;100.00;101669.09;5096122;28;20066;-74
2022/09/18 11:02:44;;;;;;;12.65;1.40;;;;;;;11.29;100.00;101677.44;5095824;28;20464;-73
2022/09/18 11:05:17;;;;;;;10.63;1.70;;;;;;;11.40;100.00;101668.56;5095657;28;20028;-74
2022/09/18 11:07:52;;;;;;;12.98;1.75;;;;;;;11.48;100.00;101678.63;5095571;28;20154;-72
2022/09/18 11:10:21;;;;;;;10.10;1.27;;;;;;;11.51;100.00;101681.03;5096368;28;20382;-73
2022/09/18 11:12:50;;;;;;;18.23;1.88;;;;;;;11.46;100.00;101678.75;5095732;28;20020;-72
2022/09/18 11:15:19;;;;;;;7.47;1.20;;;;;;;11.39;100.00;101676.69;5095759;28;20100;-74
2022/09/18 11:17:51;;;;;;;11.63;1.30;;;;;;;11.33;100.00;101679.84;5095587;28;20184;-74
2022/09/18 11:20:29;;;;;;;5.05;1.10;;;;;;;11.27;100.00;101671.41;5095694;28;20035;-73
2022/09/18 11:23:14;;;;;;;5.45;1.55;;;;;;;11.25;100.00;101683.13;5095586;28;20076;-72
2022/09/18 11:25:40;;;;;;;10.18;1.83;;;;;;;11.20;100.00;101678.19;5095487;28;20027;-73
2022/09/18 11:28:21;;;;;;;6.38;1.45;;;;;;;11.15;100.00;101663.53;5095448;28;20040;-73
2022/09/18 11:30:58;;;;;;;11.90;1.57;;;;;;;11.12;100.00;101656.63;5095274;28;20036;-73
2022/09/18 11:33:29;;;;;;;9.25;1.90;;;;;;;11.04;100.00;101662.56;5095499;28;20258;-73